Terminal Aerodrome Forecast
Issued by NWS

Home | Current Version | Previous Version | Text Only | Print | Product List | Glossary On
Versions: 1 2 3 4 5 6 7 8 9 10 11 12 13 14 15 16 17 18 19 20 21 22 23 24 25 26 27 28 29
000
FTUS45 KREV 251100
TAFTRK
TAF
KTRK 251120Z 2512/2612 20008KT 1/2SM SN OVC010
     FM251500 22012G20KT 6SM -SHSN SCT020 BKN035
     FM251900 26010G18KT P6SM VCSH SCT030 BKN060
     FM260300 VRB04KT P6SM VCSH SCT040 BKN080=

USA.gov is the U.S. government's official web portal to all federal, state and local government web resources and services.